Impacts METAR Board INFO
IDs:

KMSP - Minneapolis-St Paul, MN, US

Updated at: 1409 UTC 24 Feb 2018
Potential Impact None Slight Moderate High
Time24/02Z 24/03Z 24/04Z 24/05Z 24/06Z 24/07Z 24/08Z 24/09Z 24/10Z 24/11Z 24/12Z 24/13Z 24/14Z
VIS8 8 8 7 9 9 8 5 6 5 4 2.5 0.25
CIG-- -- -- -- -- -- -- -- -- -- -- 2 3
CoverCLRCLRCLRCLRCLRCLRCLRCLRCLRCLRSCTBKNOVC
FltCatVFRVFRVFRVFRVFRVFRVFRMVFRVFRMVFRMVFRLIFRLIFR
WX--------------BRBRBRBRBRFZFG
WDir2402602902903200021000080100
WSpd5 4 6 4 3 0 0 4 0 0 0 4 7
WGst-- -- -- -- -- -- -- -- -- -- -- -- --
Raw hourly METARs
KMSP 240153Z 24005KT 8SM CLR M05/M07 A3029 RMK AO2 SLP271 T10501072
KMSP 240253Z 26004KT 8SM CLR M06/M08 A3030 RMK AO2 SLP275 T10611078 52013
KMSP 240353Z 29006KT 8SM CLR M08/M09 A3030 RMK AO2 SLP276 T10781094
KMSP 240453Z 29004KT 7SM CLR M08/M10 A3029 RMK AO2 SLP270 T10831100
KMSP 240553Z 32003KT 9SM CLR M08/M10 A3028 RMK AO2 SLP267 4/007 T10831100 11028 21089 400001089 58008
KMSP 240653Z 00000KT 9SM CLR M10/M12 A3026 RMK AO2 SLP262 I1000 T11001117
KMSP 240753Z 00000KT 8SM CLR M10/M12 A3026 RMK AO2 SLP260 I1000 T11001117
KMSP 240853Z 21004KT 5SM BR CLR M10/M12 A3025 RMK AO2 SLP256 I1000 I3000 T11001117 56010
KMSP 240953Z 00000KT 6SM BR CLR M12/M13 A3022 RMK AO2 SLP249 I1000 T11221133
KMSP 241053Z 00000KT 5SM BR CLR M13/M16 A3020 RMK AO2 SLP243 T11331156
KMSP 241153Z 00000KT 4SM BR SCT180 M13/M15 A3018 RMK AO2 SLP234 4/007 I1000 I6000 T11331150 11083 21150 58023
KMSP 241303Z 08004KT 2 1/2SM BR BKN002 BKN170 M12/M13 A3016 RMK AO2 T11221128
KMSP 241353Z 10007KT 1/4SM R30L/2400VP6000FT FZFG OVC003 M13/M13 A3016 RMK AO2 SLP230 T11281133